createdAt,value
2023-05-14T00:01:55.000Z,14.97
2023-05-14T00:04:21.614Z,14.93
2023-05-14T00:06:49.578Z,14.90
2023-05-14T00:09:16.076Z,14.90
2023-05-14T00:11:42.606Z,14.89
2023-05-14T00:14:09.101Z,14.91
2023-05-14T00:16:35.750Z,14.89
2023-05-14T00:19:02.394Z,14.88
2023-05-14T00:21:29.003Z,14.88
2023-05-14T00:23:56.819Z,14.89
2023-05-14T00:26:23.325Z,14.89
2023-05-14T00:28:49.905Z,14.94
2023-05-14T00:31:16.445Z,14.91
2023-05-14T00:33:42.955Z,14.83
2023-05-14T00:36:09.598Z,14.81
2023-05-14T00:38:36.070Z,14.82
2023-05-14T00:41:04.201Z,14.83
2023-05-14T00:43:30.735Z,14.78
2023-05-14T00:45:57.410Z,14.74
2023-05-14T00:48:24.848Z,14.75
2023-05-14T00:50:51.679Z,14.73
2023-05-14T00:53:19.278Z,14.72
2023-05-14T00:55:47.039Z,14.70
2023-05-14T00:58:14.959Z,14.69
2023-05-14T01:00:42.286Z,14.67
2023-05-14T01:03:09.550Z,14.65
2023-05-14T01:05:43.766Z,14.63
2023-05-14T01:08:25.225Z,14.61
2023-05-14T01:10:57.479Z,14.58
2023-05-14T01:13:29.052Z,14.55
2023-05-14T01:15:56.597Z,14.50
2023-05-14T01:18:24.996Z,14.48
2023-05-14T01:20:51.582Z,14.46
2023-05-14T01:23:19.392Z,14.41
2023-05-14T01:25:46.124Z,14.40
2023-05-14T01:28:17.167Z,14.34
2023-05-14T01:30:49.162Z,14.34
2023-05-14T01:33:17.996Z,14.36
2023-05-14T01:35:45.224Z,14.25
2023-05-14T01:38:14.815Z,14.20
2023-05-14T01:40:44.019Z,14.12
2023-05-14T01:43:10.837Z,14.14
2023-05-14T01:45:37.738Z,14.03
2023-05-14T01:48:04.852Z,14.01
2023-05-14T01:50:31.413Z,13.97
2023-05-14T01:52:57.939Z,13.93
2023-05-14T01:55:24.925Z,13.92
2023-05-14T01:57:53.272Z,13.89
2023-05-14T02:00:20.325Z,13.87
2023-05-14T02:02:47.015Z,13.83
2023-05-14T02:05:13.915Z,13.83
2023-05-14T02:07:40.468Z,13.93
2023-05-14T02:10:08.309Z,13.90
2023-05-14T02:12:34.904Z,13.75
2023-05-14T02:15:02.836Z,13.67
2023-05-14T02:17:29.376Z,13.71
2023-05-14T02:19:55.908Z,13.69
2023-05-14T02:22:22.376Z,13.65
2023-05-14T02:24:48.912Z,13.63
2023-05-14T02:27:15.477Z,13.66
2023-05-14T02:29:41.982Z,13.66
2023-05-14T02:32:09.851Z,13.60
2023-05-14T02:34:36.409Z,13.56
2023-05-14T02:37:02.964Z,13.52
2023-05-14T02:39:29.484Z,13.53
2023-05-14T02:41:55.960Z,13.53
2023-05-14T02:44:22.527Z,13.50
2023-05-14T02:46:49.092Z,13.47
2023-05-14T02:49:17.005Z,13.45
2023-05-14T02:51:43.542Z,13.43
2023-05-14T02:54:10.018Z,13.45
2023-05-14T02:56:36.555Z,13.37
2023-05-14T02:59:03.462Z,13.31
2023-05-14T03:01:30.652Z,13.25
2023-05-14T03:03:57.587Z,13.20
2023-05-14T03:06:25.426Z,13.21
2023-05-14T03:08:51.939Z,13.21
2023-05-14T03:11:18.523Z,13.16
2023-05-14T03:13:44.978Z,13.10
2023-05-14T03:16:11.610Z,13.09
2023-05-14T03:18:38.174Z,13.06
2023-05-14T03:21:04.763Z,13.07
2023-05-14T03:23:32.672Z,13.02
2023-05-14T03:25:59.160Z,13.00
2023-05-14T03:28:25.842Z,12.98
2023-05-14T03:30:52.575Z,12.94
2023-05-14T03:33:19.213Z,12.92
2023-05-14T03:35:45.757Z,12.80
2023-05-14T03:38:12.254Z,12.71
2023-05-14T03:40:40.167Z,12.67
2023-05-14T03:43:06.692Z,12.65
2023-05-14T03:45:33.579Z,12.65
2023-05-14T03:48:00.185Z,12.55
2023-05-14T03:50:26.842Z,12.51
2023-05-14T03:52:53.486Z,12.44
2023-05-14T03:55:20.197Z,12.40
2023-05-14T03:57:48.660Z,12.43
2023-05-14T04:00:15.704Z,12.35
2023-05-14T04:02:42.730Z,12.29
2023-05-14T04:05:09.564Z,12.29
2023-05-14T04:07:36.229Z,12.33
2023-05-14T04:10:04.274Z,12.36
2023-05-14T04:12:31.477Z,12.24
2023-05-14T04:14:59.302Z,12.12
2023-05-14T04:17:25.908Z,12.10
2023-05-14T04:19:52.462Z,12.08
2023-05-14T04:22:19.013Z,12.06
2023-05-14T04:24:45.513Z,12.08
2023-05-14T04:27:12.001Z,12.09
2023-05-14T04:29:38.470Z,12.08
2023-05-14T04:32:07.098Z,12.08
2023-05-14T04:34:33.764Z,12.07
2023-05-14T04:37:00.258Z,12.03
2023-05-14T04:39:26.753Z,12.00
2023-05-14T04:41:53.274Z,12.02
2023-05-14T04:44:19.750Z,12.03
2023-05-14T04:46:46.231Z,12.13
2023-05-14T04:49:14.059Z,12.14
2023-05-14T04:51:40.515Z,12.15
2023-05-14T04:54:07.107Z,12.17
2023-05-14T04:56:33.578Z,12.23
2023-05-14T04:59:00.076Z,12.22
2023-05-14T05:01:26.595Z,12.31
2023-05-14T05:03:53.261Z,12.33
2023-05-14T05:06:21.155Z,12.37
2023-05-14T05:08:47.623Z,12.42
2023-05-14T05:11:14.137Z,12.44
2023-05-14T05:13:40.915Z,12.46
2023-05-14T05:16:07.634Z,12.54
2023-05-14T05:18:34.223Z,12.58
2023-05-14T05:21:00.814Z,12.67
2023-05-14T05:23:28.780Z,12.70
2023-05-14T05:25:55.304Z,12.80
2023-05-14T05:28:21.773Z,12.92
2023-05-14T05:30:48.314Z,12.88
2023-05-14T05:33:14.909Z,12.98
2023-05-14T05:35:41.377Z,13.05
2023-05-14T05:38:07.880Z,13.16
2023-05-14T05:40:35.775Z,13.17
2023-05-14T05:43:02.258Z,13.31
2023-05-14T05:45:28.732Z,13.33
2023-05-14T05:47:55.315Z,13.37
2023-05-14T05:50:21.952Z,13.45
2023-05-14T05:52:48.621Z,13.37
2023-05-14T05:55:15.241Z,13.41
2023-05-14T05:57:43.109Z,13.38
2023-05-14T06:00:10.505Z,13.50
2023-05-14T06:02:37.144Z,13.48
2023-05-14T06:05:04.327Z,13.42
2023-05-14T06:07:30.859Z,13.48
2023-05-14T06:09:57.336Z,13.48
2023-05-14T06:12:23.873Z,13.52
2023-05-14T06:14:51.849Z,13.62
2023-05-14T06:17:18.367Z,13.72
2023-05-14T06:19:44.893Z,13.79
2023-05-14T06:22:11.363Z,13.81
2023-05-14T06:24:37.903Z,13.87
2023-05-14T06:27:04.597Z,13.96
2023-05-14T06:29:31.073Z,14.01
2023-05-14T06:32:01.493Z,14.11
2023-05-14T06:34:28.112Z,14.20
2023-05-14T06:36:54.593Z,14.24
2023-05-14T06:39:21.147Z,14.28
2023-05-14T06:41:47.652Z,14.29
2023-05-14T06:44:14.118Z,14.33
2023-05-14T06:46:40.620Z,14.40
2023-05-14T06:49:08.617Z,14.49
2023-05-14T06:51:35.223Z,14.63
2023-05-14T06:54:01.839Z,14.60
2023-05-14T06:56:28.358Z,14.69
2023-05-14T06:58:54.874Z,14.75
2023-05-14T07:01:21.380Z,14.76
2023-05-14T07:03:47.914Z,14.74
2023-05-14T07:06:15.802Z,14.76
2023-05-14T07:08:42.458Z,14.88
2023-05-14T07:11:08.987Z,14.87
2023-05-14T07:13:35.490Z,14.94
2023-05-14T07:16:02.008Z,14.92
2023-05-14T07:18:28.583Z,15.01
2023-05-14T07:20:55.085Z,15.26
2023-05-14T07:23:22.973Z,15.29
2023-05-14T07:25:49.533Z,15.25
2023-05-14T07:28:16.011Z,15.25
2023-05-14T07:30:42.479Z,15.31
2023-05-14T07:33:09.077Z,15.30
2023-05-14T07:35:35.734Z,15.43
2023-05-14T07:38:02.238Z,15.45
2023-05-14T07:40:30.077Z,15.54
2023-05-14T07:42:56.582Z,15.62
2023-05-14T07:45:23.102Z,15.69
2023-05-14T07:47:49.745Z,15.76
2023-05-14T07:50:16.273Z,15.76
2023-05-14T07:52:42.793Z,15.89
2023-05-14T07:55:10.467Z,15.99
2023-05-14T07:57:38.833Z,16.09
2023-05-14T08:00:06.537Z,16.09
2023-05-14T08:02:33.165Z,16.13
2023-05-14T08:04:59.799Z,16.15
2023-05-14T08:07:26.325Z,16.09
2023-05-14T08:09:52.992Z,16.11
2023-05-14T08:12:19.508Z,16.26
2023-05-14T08:14:47.359Z,16.33
2023-05-14T08:17:14.106Z,16.41
2023-05-14T08:19:40.688Z,16.44
2023-05-14T08:22:07.291Z,16.45
2023-05-14T08:24:33.815Z,16.60
2023-05-14T08:27:00.376Z,16.56
2023-05-14T08:29:26.890Z,16.68
2023-05-14T08:31:54.736Z,16.74
2023-05-14T08:34:21.293Z,16.83
2023-05-14T08:36:47.840Z,16.94
2023-05-14T08:39:14.360Z,16.98
2023-05-14T08:41:41.337Z,17.18
2023-05-14T08:44:12.421Z,17.24
2023-05-14T08:46:40.184Z,17.35
2023-05-14T08:49:15.656Z,17.34
2023-05-14T08:51:42.837Z,17.40
2023-05-14T08:54:11.461Z,17.44
2023-05-14T08:56:39.617Z,17.51
2023-05-14T08:59:06.147Z,17.59
2023-05-14T09:01:33.038Z,17.68
2023-05-14T09:04:00.415Z,17.62
2023-05-14T09:06:28.937Z,17.56
2023-05-14T09:08:56.021Z,17.49
2023-05-14T09:11:22.732Z,17.58
2023-05-14T09:13:49.252Z,17.71
2023-05-14T09:16:18.413Z,17.73
2023-05-14T09:18:45.244Z,17.83
2023-05-14T09:21:13.623Z,17.83
2023-05-14T09:23:43.284Z,17.92
2023-05-14T09:26:09.954Z,18.05
2023-05-14T09:28:40.072Z,18.02
2023-05-14T09:31:06.642Z,18.16
2023-05-14T09:33:33.194Z,18.21
2023-05-14T09:36:00.144Z,18.29
2023-05-14T09:38:29.964Z,18.33
2023-05-14T09:40:58.019Z,18.41
2023-05-14T09:43:24.544Z,18.43
2023-05-14T09:45:51.025Z,18.50
2023-05-14T09:48:17.547Z,18.62
2023-05-14T09:50:44.998Z,18.65
2023-05-14T09:53:11.690Z,18.73
2023-05-14T09:55:38.603Z,18.87
2023-05-14T09:58:06.485Z,18.89
2023-05-14T10:00:33.760Z,18.94
2023-05-14T10:03:04.855Z,19.07
2023-05-14T10:05:34.911Z,19.17
2023-05-14T10:08:05.687Z,19.21
2023-05-14T10:10:33.202Z,19.30
2023-05-14T10:13:03.827Z,19.36
2023-05-14T10:15:36.901Z,19.39
2023-05-14T10:18:09.535Z,19.42
2023-05-14T10:20:37.907Z,19.42
2023-05-14T10:23:05.703Z,19.56
2023-05-14T10:25:32.493Z,19.63
2023-05-14T10:27:59.262Z,19.57
2023-05-14T10:30:26.013Z,19.65
2023-05-14T10:33:08.071Z,19.74
2023-05-14T10:35:55.379Z,19.86
2023-05-14T10:38:27.488Z,19.95
2023-05-14T10:40:59.317Z,20.01
2023-05-14T10:43:28.178Z,20.12
2023-05-14T10:45:55.227Z,20.18
2023-05-14T10:48:23.853Z,20.26
2023-05-14T10:50:51.613Z,20.32
2023-05-14T10:53:18.355Z,20.43
2023-05-14T10:55:45.937Z,20.55
2023-05-14T10:58:12.567Z,20.63
2023-05-14T11:00:41.127Z,20.64
2023-05-14T11:03:07.889Z,20.69
2023-05-14T11:05:36.890Z,20.66
2023-05-14T11:08:07.970Z,20.69
2023-05-14T11:10:35.434Z,20.83
2023-05-14T11:13:02.451Z,20.88
2023-05-14T11:15:29.038Z,20.91
2023-05-14T11:17:55.624Z,20.83
2023-05-14T11:20:22.357Z,20.93
2023-05-14T11:22:50.433Z,20.93
2023-05-14T11:25:17.101Z,21.01
2023-05-14T11:27:45.619Z,21.02
2023-05-14T11:30:13.898Z,21.10
2023-05-14T11:32:40.734Z,21.21
2023-05-14T11:35:07.998Z,21.31
2023-05-14T11:37:34.479Z,21.42
2023-05-14T11:40:02.414Z,21.52
2023-05-14T11:42:28.948Z,21.58
2023-05-14T11:44:55.546Z,21.61
2023-05-14T11:47:22.923Z,21.65
2023-05-14T11:49:49.730Z,21.64
2023-05-14T11:52:16.871Z,21.85
2023-05-14T11:54:44.264Z,22.02
2023-05-14T11:57:13.738Z,22.13
2023-05-14T11:59:40.533Z,22.14
2023-05-14T12:02:10.641Z,22.11
2023-05-14T12:04:37.487Z,22.06
2023-05-14T12:07:08.418Z,21.92
2023-05-14T12:09:37.244Z,21.75
2023-05-14T12:12:08.453Z,21.67
2023-05-14T12:14:37.843Z,21.60
2023-05-14T12:17:11.710Z,21.44
2023-05-14T12:19:40.416Z,21.38
2023-05-14T12:22:08.138Z,21.34
2023-05-14T12:24:34.709Z,21.32
2023-05-14T12:27:02.337Z,21.27
2023-05-14T12:29:28.906Z,21.30
2023-05-14T12:31:58.055Z,21.46
2023-05-14T12:34:24.565Z,21.64
2023-05-14T12:36:51.149Z,21.78
2023-05-14T12:39:17.915Z,21.77
2023-05-14T12:41:44.440Z,21.52
2023-05-14T12:44:10.937Z,21.36
2023-05-14T12:46:37.774Z,21.30
2023-05-14T12:49:05.580Z,21.26
2023-05-14T12:51:32.112Z,21.25
2023-05-14T12:53:58.569Z,21.13
2023-05-14T12:56:25.117Z,21.11
2023-05-14T12:58:51.616Z,21.12
2023-05-14T13:01:18.113Z,21.10
2023-05-14T13:03:44.634Z,21.23
2023-05-14T13:06:12.518Z,21.43
2023-05-14T13:08:40.498Z,21.64
2023-05-14T13:11:07.916Z,21.85
2023-05-14T13:13:34.488Z,22.02
2023-05-14T13:16:01.013Z,22.11
2023-05-14T13:18:27.574Z,22.18
2023-05-14T13:20:54.193Z,22.23
2023-05-14T13:23:22.076Z,22.30
2023-05-14T13:25:50.017Z,22.34
2023-05-14T13:28:16.676Z,22.36
2023-05-14T13:31:04.389Z,22.16
2023-05-14T13:33:30.865Z,22.04
2023-05-14T13:35:57.376Z,22.09
2023-05-14T13:38:25.168Z,22.10
2023-05-14T13:40:51.697Z,22.01
2023-05-14T13:43:18.236Z,21.93
2023-05-14T13:45:44.793Z,21.88
2023-05-14T13:48:11.348Z,21.92
2023-05-14T13:50:37.823Z,22.03
2023-05-14T13:53:04.308Z,22.10
2023-05-14T13:55:32.140Z,22.20
2023-05-14T13:57:58.734Z,22.21
2023-05-14T14:00:25.210Z,22.14
2023-05-14T14:02:51.691Z,22.09
2023-05-14T14:05:18.559Z,22.09
2023-05-14T14:07:45.781Z,22.18
2023-05-14T14:10:13.020Z,22.02
2023-05-14T14:12:41.032Z,22.09
2023-05-14T14:15:08.402Z,22.19
2023-05-14T14:17:35.025Z,22.20
2023-05-14T14:20:01.618Z,22.24
2023-05-14T14:22:29.259Z,22.25
2023-05-14T14:24:56.013Z,22.26
2023-05-14T14:27:22.864Z,22.28
2023-05-14T14:29:50.699Z,22.36
2023-05-14T14:32:17.257Z,22.44
2023-05-14T14:34:44.014Z,22.55
2023-05-14T14:37:10.473Z,22.47
2023-05-14T14:39:36.916Z,22.56
2023-05-14T14:42:03.999Z,22.48
2023-05-14T14:44:30.505Z,22.31
2023-05-14T14:46:58.327Z,22.26
2023-05-14T14:49:24.980Z,22.26
2023-05-14T14:51:51.583Z,22.26
2023-05-14T14:54:18.117Z,22.29
2023-05-14T14:56:44.643Z,22.21
2023-05-14T14:59:11.176Z,22.27
2023-05-14T15:01:37.780Z,22.14
2023-05-14T15:04:05.823Z,22.17
2023-05-14T15:06:32.312Z,22.07
2023-05-14T15:08:58.830Z,22.10
2023-05-14T15:11:25.326Z,22.07
2023-05-14T15:13:51.800Z,22.04
2023-05-14T15:16:18.312Z,22.18
2023-05-14T15:18:44.965Z,22.19
2023-05-14T15:21:12.889Z,22.14
2023-05-14T15:23:39.364Z,22.13
2023-05-14T15:26:05.848Z,22.17
2023-05-14T15:28:32.343Z,22.08
2023-05-14T15:30:59.054Z,22.11
2023-05-14T15:33:25.525Z,22.04
2023-05-14T15:35:52.054Z,22.03
2023-05-14T15:38:19.906Z,22.04
2023-05-14T15:40:46.381Z,22.15
2023-05-14T15:43:12.885Z,22.09
2023-05-14T15:45:39.417Z,22.17
2023-05-14T15:48:06.334Z,21.98
2023-05-14T15:50:32.865Z,21.89
2023-05-14T15:53:00.198Z,21.82
2023-05-14T15:55:28.165Z,21.80
2023-05-14T15:57:57.819Z,21.85
2023-05-14T16:00:24.872Z,21.62
2023-05-14T16:02:52.111Z,21.67
2023-05-14T16:05:18.902Z,21.70
2023-05-14T16:07:45.459Z,21.72
2023-05-14T16:10:11.935Z,21.62
2023-05-14T16:12:39.786Z,21.58
2023-05-14T16:15:07.546Z,21.56
2023-05-14T16:17:34.407Z,21.55
2023-05-14T16:20:01.007Z,21.40
2023-05-14T16:22:27.517Z,21.31
2023-05-14T16:24:53.984Z,21.34
2023-05-14T16:27:20.893Z,21.20
2023-05-14T16:29:48.806Z,21.40
2023-05-14T16:32:15.345Z,21.34
2023-05-14T16:34:41.899Z,21.30
2023-05-14T16:37:08.725Z,21.38
2023-05-14T16:39:36.113Z,21.29
2023-05-14T16:42:02.672Z,21.27
2023-05-14T16:44:29.119Z,21.27
2023-05-14T16:46:57.549Z,21.25
2023-05-14T16:49:24.087Z,21.28
2023-05-14T16:51:50.589Z,21.14
2023-05-14T16:54:17.067Z,21.19
2023-05-14T16:56:43.699Z,21.14
2023-05-14T16:59:10.172Z,21.13
2023-05-14T17:01:37.245Z,20.97
2023-05-14T17:04:05.150Z,20.96
2023-05-14T17:06:31.675Z,21.04
2023-05-14T17:08:58.161Z,21.07
2023-05-14T17:11:24.696Z,20.96
2023-05-14T17:13:51.294Z,20.92
2023-05-14T17:16:17.939Z,20.82
2023-05-14T17:18:44.545Z,20.81
2023-05-14T17:21:12.421Z,20.74
2023-05-14T17:23:38.889Z,20.74
2023-05-14T17:26:05.516Z,20.72
2023-05-14T17:28:32.064Z,20.73
2023-05-14T17:30:58.580Z,20.64
2023-05-14T17:33:25.150Z,20.78
2023-05-14T17:35:51.676Z,20.52
2023-05-14T17:38:19.463Z,20.50
2023-05-14T17:40:45.958Z,20.54
2023-05-14T17:43:12.736Z,20.44
2023-05-14T17:45:52.424Z,20.50
2023-05-14T17:48:19.430Z,20.52
2023-05-14T17:50:45.927Z,20.52
2023-05-14T17:53:12.423Z,20.54
2023-05-14T17:55:40.460Z,20.47
2023-05-14T17:58:07.118Z,20.50
2023-05-14T18:00:33.813Z,20.47
2023-05-14T18:03:00.445Z,20.26
2023-05-14T18:05:27.011Z,20.26
2023-05-14T18:07:53.529Z,20.14
2023-05-14T18:10:20.137Z,20.05
2023-05-14T18:12:48.078Z,20.01
2023-05-14T18:15:14.642Z,20.06
2023-05-14T18:17:41.202Z,20.09
2023-05-14T18:20:08.730Z,20.00
2023-05-14T18:22:35.173Z,19.93
2023-05-14T18:25:01.700Z,19.88
2023-05-14T18:27:28.537Z,19.83
2023-05-14T18:29:56.408Z,19.74
2023-05-14T18:32:22.900Z,19.67
2023-05-14T18:34:49.382Z,19.55
2023-05-14T18:37:15.925Z,19.44
2023-05-14T18:39:42.457Z,19.45
2023-05-14T18:42:08.924Z,19.55
2023-05-14T18:44:35.391Z,19.41
2023-05-14T18:47:03.620Z,19.31
2023-05-14T18:49:30.175Z,19.38
2023-05-14T18:51:56.711Z,19.24
2023-05-14T18:54:23.228Z,19.14
2023-05-14T18:56:49.775Z,19.12
2023-05-14T18:59:16.307Z,18.97
2023-05-14T19:01:42.810Z,18.92
2023-05-14T19:04:10.688Z,18.83
2023-05-14T19:06:37.235Z,18.74
2023-05-14T19:09:03.756Z,18.76
2023-05-14T19:11:30.290Z,18.81
2023-05-14T19:13:56.845Z,18.67
2023-05-14T19:16:23.365Z,18.67
2023-05-14T19:18:50.097Z,18.57
2023-05-14T19:21:17.991Z,18.57
2023-05-14T19:23:45.611Z,18.38
2023-05-14T19:26:12.188Z,18.19
2023-05-14T19:28:38.680Z,18.22
2023-05-14T19:31:05.412Z,18.15
2023-05-14T19:33:31.946Z,18.08
2023-05-14T19:35:58.480Z,18.01
2023-05-14T19:38:26.347Z,17.97
2023-05-14T19:40:52.859Z,17.93
2023-05-14T19:43:19.394Z,17.91
2023-05-14T19:45:45.927Z,17.85
2023-05-14T19:48:12.569Z,17.84
2023-05-14T19:50:39.157Z,17.74
2023-05-14T19:53:05.649Z,17.70
2023-05-14T19:55:33.474Z,17.68
2023-05-14T19:58:00.002Z,17.51
2023-05-14T20:00:26.767Z,17.49
2023-05-14T20:02:53.511Z,17.42
2023-05-14T20:05:20.071Z,17.36
2023-05-14T20:07:46.581Z,17.17
2023-05-14T20:10:13.089Z,17.05
2023-05-14T20:12:40.917Z,17.09
2023-05-14T20:15:08.257Z,17.07
2023-05-14T20:17:34.812Z,16.99
2023-05-14T20:20:01.515Z,17.00
2023-05-14T20:22:28.058Z,16.96
2023-05-14T20:24:54.562Z,16.88
2023-05-14T20:27:21.521Z,16.93
2023-05-14T20:29:49.455Z,16.87
2023-05-14T20:32:15.971Z,16.68
2023-05-14T20:34:42.498Z,16.63
2023-05-14T20:37:09.042Z,16.63
2023-05-14T20:39:35.521Z,16.52
2023-05-14T20:42:02.003Z,16.49
2023-05-14T20:44:28.585Z,16.48
2023-05-14T20:46:56.603Z,16.53
2023-05-14T20:49:23.094Z,16.56
2023-05-14T20:51:49.589Z,16.46
2023-05-14T20:54:16.148Z,16.44
2023-05-14T20:56:42.723Z,16.36
2023-05-14T20:59:09.313Z,16.33
2023-05-14T21:01:35.826Z,16.33
2023-05-14T21:04:04.213Z,16.29
2023-05-14T21:06:30.846Z,16.19
2023-05-14T21:08:57.366Z,16.21
2023-05-14T21:11:23.873Z,16.22
2023-05-14T21:13:50.377Z,16.24
2023-05-14T21:16:17.003Z,16.22
2023-05-14T21:18:43.530Z,16.16
2023-05-14T21:21:11.432Z,16.09
2023-05-14T21:23:38.005Z,16.01
2023-05-14T21:26:04.656Z,16.02
2023-05-14T21:28:31.185Z,15.99
2023-05-14T21:30:57.746Z,16.01
2023-05-14T21:33:24.325Z,15.99
2023-05-14T21:35:50.841Z,16.05
2023-05-14T21:38:18.705Z,16.00
2023-05-14T21:40:45.223Z,15.93
2023-05-14T21:43:11.722Z,15.80
2023-05-14T21:45:38.706Z,15.85
2023-05-14T21:48:05.803Z,15.79
2023-05-14T21:50:32.442Z,15.75
2023-05-14T21:52:58.919Z,15.64
2023-05-14T21:55:27.560Z,15.67
2023-05-14T21:57:54.452Z,15.53
2023-05-14T22:00:20.944Z,15.40
2023-05-14T22:02:47.465Z,15.47
2023-05-14T22:05:14.003Z,15.44
2023-05-14T22:07:40.783Z,15.37
2023-05-14T22:10:07.821Z,15.27
2023-05-14T22:12:35.705Z,15.23
2023-05-14T22:15:02.553Z,15.18
2023-05-14T22:17:29.117Z,15.11
2023-05-14T22:19:55.632Z,15.06
2023-05-14T22:22:22.136Z,14.99
2023-05-14T22:24:48.634Z,14.93
2023-05-14T22:27:15.179Z,14.85
2023-05-14T22:29:43.120Z,14.85
2023-05-14T22:32:09.668Z,14.74
2023-05-14T22:34:36.218Z,14.62
2023-05-14T22:37:02.796Z,14.62
2023-05-14T22:39:29.326Z,14.48
2023-05-14T22:41:55.848Z,14.51
2023-05-14T22:44:22.556Z,14.41
2023-05-14T22:46:50.591Z,14.47
2023-05-14T22:49:17.239Z,14.35
2023-05-14T22:51:43.770Z,14.33
2023-05-14T22:54:10.396Z,14.32
2023-05-14T22:56:37.492Z,14.26
2023-05-14T22:59:03.982Z,14.36
2023-05-14T23:01:31.533Z,14.34
2023-05-14T23:03:59.677Z,14.31
2023-05-14T23:06:26.353Z,14.26
2023-05-14T23:08:52.834Z,14.32
2023-05-14T23:11:19.312Z,14.36
2023-05-14T23:13:45.878Z,14.25
2023-05-14T23:16:12.400Z,14.25
2023-05-14T23:18:39.046Z,14.16
2023-05-14T23:21:07.033Z,14.20
2023-05-14T23:23:33.515Z,14.13
2023-05-14T23:26:00.216Z,13.99
2023-05-14T23:28:26.851Z,14.08
2023-05-14T23:30:53.338Z,14.13
2023-05-14T23:33:19.821Z,14.04
2023-05-14T23:35:46.444Z,13.88
2023-05-14T23:38:14.424Z,13.80
2023-05-14T23:40:40.945Z,13.73
2023-05-14T23:43:07.434Z,13.69
2023-05-14T23:45:34.129Z,13.79
2023-05-14T23:48:01.727Z,13.70
2023-05-14T23:50:28.303Z,13.70
2023-05-14T23:52:55.396Z,13.67
2023-05-14T23:55:23.489Z,13.67
2023-05-14T23:57:50.245Z,13.63
